createdAt,value
2019-01-31T00:00:02.418Z,0.1
2019-01-31T00:05:08.313Z,0
2019-01-31T00:10:05.177Z,0.1
2019-01-31T00:15:05.269Z,0
2019-01-31T00:20:10.853Z,0.1
2019-01-31T00:25:08.206Z,0
2019-01-31T00:30:05.566Z,0
2019-01-31T00:35:05.469Z,0
2019-01-31T00:40:02.762Z,0
2019-01-31T00:45:02.630Z,0
2019-01-31T00:50:02.528Z,0
2019-01-31T00:55:15.025Z,-0.1
2019-01-31T01:00:30.877Z,-0.1
2019-01-31T01:05:07.773Z,-0.1
2019-01-31T01:10:08.183Z,-0.1
2019-01-31T01:15:08.056Z,-0.1
2019-01-31T01:20:05.569Z,-0.1
2019-01-31T01:25:02.999Z,-0.1
2019-01-31T01:30:05.422Z,-0.1
2019-01-31T01:35:12.801Z,-0.1
2019-01-31T01:40:15.837Z,-0.1
2019-01-31T01:45:08.134Z,-0.1
2019-01-31T01:50:03.148Z,-0.2
2019-01-31T01:55:10.742Z,-0.1
2019-01-31T02:00:38.132Z,-0.1
2019-01-31T02:05:03.008Z,-0.1
2019-01-31T02:10:02.316Z,-0.1
2019-01-31T02:15:10.781Z,-0.2
2019-01-31T02:20:05.364Z,-0.2
2019-01-31T02:25:05.177Z,-0.2
2019-01-31T02:30:05.655Z,-0.2
2019-01-31T02:35:38.293Z,-0.3
2019-01-31T02:40:15.492Z,-0.2
2019-01-31T02:45:05.215Z,-0.2
2019-01-31T02:50:08.194Z,-0.3
2019-01-31T02:55:08.063Z,-0.3
2019-01-31T03:00:15.618Z,-0.3
2019-01-31T03:05:02.909Z,-0.3
2019-01-31T03:10:20.930Z,-0.3
2019-01-31T03:15:20.100Z,-0.3
2019-01-31T03:20:07.513Z,-0.3
2019-01-31T03:25:03.278Z,-0.3
2019-01-31T03:30:25.486Z,-0.3
2019-01-31T03:35:02.722Z,-0.3
2019-01-31T03:40:10.086Z,-0.3
2019-01-31T03:45:02.563Z,-0.3
2019-01-31T03:50:17.624Z,-0.2
2019-01-31T03:55:07.364Z,-0.2
2019-01-31T04:00:03.270Z,-0.2
2019-01-31T04:05:14.939Z,-0.2
2019-01-31T04:10:18.577Z,-0.2
2019-01-31T04:15:05.716Z,-0.2
2019-01-31T04:20:25.503Z,-0.2
2019-01-31T04:25:07.411Z,-0.3
2019-01-31T04:30:02.333Z,-0.3
2019-01-31T04:35:10.812Z,-0.4
2019-01-31T04:40:08.200Z,-0.3
2019-01-31T04:45:07.556Z,-0.3
2019-01-31T04:50:02.462Z,-0.4
2019-01-31T04:55:09.922Z,-0.4
2019-01-31T05:00:02.814Z,-0.4
2019-01-31T05:05:02.722Z,-0.4
2019-01-31T05:10:05.629Z,-0.5
2019-01-31T05:15:08.104Z,-0.5
2019-01-31T05:20:28.424Z,-0.5
2019-01-31T05:25:14.980Z,-0.5
2019-01-31T05:30:05.436Z,-0.5
2019-01-31T05:35:07.977Z,-0.5
2019-01-31T05:40:02.454Z,-0.6
2019-01-31T05:45:12.633Z,-0.5
2019-01-31T05:50:05.122Z,-0.6
2019-01-31T05:55:12.783Z,-0.5
2019-01-31T06:00:02.737Z,-0.5
2019-01-31T06:05:05.248Z,-0.5
2019-01-31T06:10:07.750Z,-0.4
2019-01-31T06:15:12.678Z,-0.4
2019-01-31T06:20:02.750Z,-0.4
2019-01-31T06:25:07.818Z,-0.3
2019-01-31T06:30:05.296Z,-0.3
2019-01-31T06:35:02.645Z,-0.3
2019-01-31T06:40:30.912Z,-0.2
2019-01-31T06:45:15.461Z,-0.2
2019-01-31T06:50:14.974Z,-0.1
2019-01-31T06:55:13.288Z,-0.1
2019-01-31T07:00:03.175Z,-0.1
2019-01-31T07:05:05.676Z,0
2019-01-31T07:10:08.091Z,0
2019-01-31T07:15:23.280Z,0.1
2019-01-31T07:20:03.297Z,0.1
2019-01-31T07:25:03.180Z,0.1
2019-01-31T07:30:08.123Z,0.2
2019-01-31T07:35:02.974Z,0.2
2019-01-31T07:40:05.035Z,0.2
2019-01-31T07:45:02.456Z,0.2
2019-01-31T07:50:02.387Z,0.3
2019-01-31T07:55:10.834Z,0.2
2019-01-31T08:00:03.180Z,0.2
2019-01-31T08:05:08.135Z,0.2
2019-01-31T08:10:10.151Z,0.4
2019-01-31T08:15:02.420Z,0.4
2019-01-31T08:20:17.615Z,0.4
2019-01-31T08:25:05.764Z,0.5
2019-01-31T08:30:07.657Z,0.8
2019-01-31T08:35:02.498Z,0.8
2019-01-31T08:40:02.862Z,1
2019-01-31T08:45:15.409Z,1
2019-01-31T08:50:08.360Z,0.9
2019-01-31T08:55:23.502Z,0.8
2019-01-31T09:00:04.986Z,0.8
2019-01-31T09:10:10.398Z,0.9
2019-01-31T09:15:12.824Z,1
2019-01-31T09:20:10.374Z,1.1
2019-01-31T09:25:05.447Z,1.1
2019-01-31T09:30:15.001Z,1.1
2019-01-31T09:35:07.438Z,1.2
2019-01-31T09:40:07.846Z,1.2
2019-01-31T09:45:08.046Z,1.3
2019-01-31T09:50:05.521Z,1.3
2019-01-31T09:55:05.447Z,1.5
2019-01-31T10:00:26.993Z,1.6
2019-01-31T10:05:02.600Z,1.6
2019-01-31T10:10:02.945Z,1.7
2019-01-31T10:15:09.929Z,1.9
2019-01-31T10:20:02.967Z,1.9
2019-01-31T10:25:02.813Z,2
2019-01-31T10:30:07.804Z,2.2
2019-01-31T10:35:05.270Z,2.3
2019-01-31T10:40:05.209Z,2.4
2019-01-31T10:45:24.653Z,2.5
2019-01-31T10:50:07.796Z,2.6
2019-01-31T10:55:05.169Z,2.7
2019-01-31T11:00:05.609Z,2.9
2019-01-31T11:05:13.128Z,3
2019-01-31T11:10:05.132Z,3.1
2019-01-31T11:15:05.063Z,3.2
2019-01-31T11:20:03.124Z,3.2
2019-01-31T11:25:20.765Z,3.5
2019-01-31T11:35:22.829Z,3.6
2019-01-31T11:40:15.926Z,3.7
2019-01-31T11:45:31.058Z,3.7
2019-01-31T11:50:10.621Z,3.8
2019-01-31T11:55:10.648Z,3.9
2019-01-31T12:00:22.796Z,3.9
2019-01-31T12:05:05.002Z,4
2019-01-31T12:10:17.577Z,4.2
2019-01-31T12:15:07.349Z,4.2
2019-01-31T12:20:04.868Z,4.2
2019-01-31T12:25:23.460Z,4.3
2019-01-31T12:30:04.920Z,4.3
2019-01-31T12:35:04.859Z,4.3
2019-01-31T12:40:05.760Z,4.4
2019-01-31T12:45:03.142Z,4.4
2019-01-31T12:50:03.036Z,4.5
2019-01-31T12:55:02.917Z,4.5
2019-01-31T13:00:10.316Z,4.4
2019-01-31T13:05:15.832Z,4.5
2019-01-31T13:10:03.260Z,4.5
2019-01-31T13:15:03.107Z,4.5
2019-01-31T13:20:13.124Z,4.4
2019-01-31T13:25:07.939Z,4.3
2019-01-31T13:30:07.853Z,4.3
2019-01-31T13:35:02.658Z,4.3
2019-01-31T13:40:13.219Z,4.2
2019-01-31T13:45:05.436Z,4.2
2019-01-31T13:50:08.337Z,4.2
2019-01-31T13:55:05.720Z,4.2
2019-01-31T14:00:10.139Z,4.2
2019-01-31T14:05:15.052Z,4.3
2019-01-31T14:10:02.323Z,4.3
2019-01-31T14:15:05.708Z,4.3
2019-01-31T14:20:05.182Z,4.3
2019-01-31T14:25:05.003Z,4.3
2019-01-31T14:30:07.889Z,4.2
2019-01-31T14:35:04.925Z,4.1
2019-01-31T14:40:03.165Z,4.1
2019-01-31T14:45:02.283Z,3.9
2019-01-31T14:50:13.268Z,3.7
2019-01-31T14:55:20.654Z,3.6
2019-01-31T15:00:02.655Z,3.6
2019-01-31T15:05:02.536Z,3.5
2019-01-31T15:10:02.901Z,3.4
2019-01-31T15:15:07.883Z,3.2
2019-01-31T15:20:02.777Z,3.2
2019-01-31T15:25:07.702Z,3
2019-01-31T15:30:05.036Z,3
2019-01-31T15:35:04.890Z,2.9
2019-01-31T15:40:08.247Z,2.8
2019-01-31T15:45:03.133Z,2.8
2019-01-31T15:50:03.011Z,2.8
2019-01-31T15:55:02.801Z,2.7
2019-01-31T16:00:05.222Z,2.5
2019-01-31T16:05:02.413Z,2.5
2019-01-31T16:10:07.650Z,2.3
2019-01-31T16:15:02.642Z,2.3
2019-01-31T16:20:07.466Z,2.1
2019-01-31T16:25:03.187Z,2.1
2019-01-31T16:30:15.585Z,1.9
2019-01-31T16:35:07.822Z,1.8
2019-01-31T16:40:08.041Z,1.7
2019-01-31T16:45:06.489Z,1.7
2019-01-31T16:50:05.455Z,1.6
2019-01-31T16:55:02.712Z,1.6
2019-01-31T17:00:02.467Z,1.5
2019-01-31T17:05:04.786Z,1.4
2019-01-31T17:10:02.950Z,1.3
2019-01-31T17:15:02.662Z,1.3
2019-01-31T17:20:05.006Z,1.1
2019-01-31T17:25:05.750Z,1
2019-01-31T17:30:02.546Z,1
2019-01-31T17:35:02.260Z,1
2019-01-31T17:40:02.423Z,0.8
2019-01-31T17:45:03.132Z,0.7
2019-01-31T17:50:10.487Z,0.5
2019-01-31T17:55:10.268Z,0.4
2019-01-31T18:00:03.014Z,0.4
2019-01-31T18:05:02.757Z,0.3
2019-01-31T18:10:02.477Z,0.2
2019-01-31T18:15:02.258Z,0.2
2019-01-31T18:20:03.038Z,0.1
2019-01-31T18:25:02.936Z,0.1
2019-01-31T18:30:02.689Z,0
2019-01-31T18:35:02.445Z,0
2019-01-31T18:40:22.825Z,-0.2
2019-01-31T18:45:02.414Z,-0.2
2019-01-31T18:50:05.675Z,-0.3
2019-01-31T18:55:02.831Z,-0.3
2019-01-31T19:00:02.574Z,-0.3
2019-01-31T19:05:10.227Z,-0.3
2019-01-31T19:10:04.888Z,-0.3
2019-01-31T19:15:03.130Z,-0.3
2019-01-31T19:20:02.962Z,-0.3
2019-01-31T19:25:05.209Z,-0.2
2019-01-31T19:30:03.002Z,-0.2
2019-01-31T19:35:05.293Z,-0.1
2019-01-31T19:40:05.003Z,0
2019-01-31T19:45:05.719Z,-0.1
2019-01-31T19:50:02.446Z,-0.2
2019-01-31T19:55:13.306Z,-0.3
2019-01-31T20:00:08.137Z,-0.4
2019-01-31T20:05:05.335Z,-0.4
2019-01-31T20:10:07.548Z,-0.4
2019-01-31T20:15:03.207Z,-0.4
2019-01-31T20:20:02.552Z,-0.4
2019-01-31T20:25:04.806Z,-0.6
2019-01-31T20:30:05.117Z,-0.6
2019-01-31T20:35:04.826Z,-0.7
2019-01-31T20:40:08.129Z,-0.7
2019-01-31T20:45:02.798Z,-0.7
2019-01-31T20:50:05.031Z,-0.6
2019-01-31T20:55:09.830Z,-0.5
2019-01-31T21:00:02.616Z,-0.6
2019-01-31T21:05:02.917Z,-0.5
2019-01-31T21:10:03.078Z,-0.5
2019-01-31T21:15:05.381Z,-0.4
2019-01-31T21:20:05.770Z,-0.5
2019-01-31T21:25:05.453Z,-0.5
2019-01-31T21:30:05.735Z,-0.4
2019-01-31T21:35:02.933Z,-0.4
2019-01-31T21:40:03.215Z,-0.4
2019-01-31T21:45:05.561Z,-0.5
2019-01-31T21:50:07.658Z,-0.6
2019-01-31T21:55:02.322Z,-0.5
2019-01-31T22:00:03.064Z,-0.6
2019-01-31T22:05:13.028Z,-0.7
2019-01-31T22:10:04.942Z,-0.7
2019-01-31T22:15:20.014Z,-0.7
2019-01-31T22:20:02.831Z,-0.7
2019-01-31T22:25:02.528Z,-0.8
2019-01-31T22:30:07.346Z,-0.9
2019-01-31T22:35:13.140Z,-0.9
2019-01-31T22:40:04.834Z,-0.9
2019-01-31T22:45:03.009Z,-0.9
2019-01-31T22:50:05.039Z,-1
2019-01-31T22:55:05.737Z,-1.1
2019-01-31T23:00:07.513Z,-1.1
2019-01-31T23:05:05.671Z,-1.1
2019-01-31T23:10:15.455Z,-1.2
2019-01-31T23:15:02.537Z,-1.2
2019-01-31T23:20:02.414Z,-1.2
2019-01-31T23:25:05.751Z,-1.3
2019-01-31T23:30:02.517Z,-1.3
2019-01-31T23:35:04.796Z,-1.4
2019-01-31T23:40:30.709Z,-1.4
2019-01-31T23:45:02.456Z,-1.4
2019-01-31T23:50:05.736Z,-1.4
2019-01-31T23:55:05.478Z,-1.5
